Terminal Aerodrome Forecast
Issued by NWS Topeka, KS

Home | Current Version | Previous Version | Text Only | Print | Product List | Glossary Off
Versions: 1 2 3 4 5 6 7 8 9 10 11 12 13 14 15 16 17 18 19 20 21 22 23 24

000
FTUS43 KTOP 041700
TAFTOP
TAF
KTOP 041729Z 0418/0518 19010KT P6SM SCT150
     FM050100 15006KT P6SM VCTS SCT050CB
     FM050600 16006KT P6SM SCT050 BKN120
     FM051600 18014G21KT P6SM SCT250=

USA.gov is the U.S. government's official web portal to all federal, state and local government web resources and services.